createdAt,value
2019-03-16T00:01:17.973Z,57.73
2019-03-16T00:03:49.178Z,57.72
2019-03-16T00:06:20.133Z,57.83
2019-03-16T00:08:51.079Z,57.84
2019-03-16T00:11:21.962Z,57.89
2019-03-16T00:13:53.219Z,58.13
2019-03-16T00:16:24.127Z,57.96
2019-03-16T00:18:55.106Z,58.04
2019-03-16T00:21:26.466Z,57.87
2019-03-16T00:23:57.310Z,58.01
2019-03-16T00:26:39.322Z,57.84
2019-03-16T00:29:11.636Z,57.85
2019-03-16T00:31:42.963Z,57.91
2019-03-16T00:34:14.138Z,57.86
2019-03-16T00:36:45.566Z,57.57
2019-03-16T00:39:16.512Z,57.33
2019-03-16T00:41:47.374Z,56.99
2019-03-16T00:44:18.263Z,57.08
2019-03-16T00:46:49.631Z,57.30
2019-03-16T00:49:21.819Z,57.32
2019-03-16T00:51:52.696Z,57.22
2019-03-16T00:54:23.692Z,57.02
2019-03-16T00:56:54.537Z,57.11
2019-03-16T00:59:25.430Z,57.02
2019-03-16T01:01:56.885Z,57.06
2019-03-16T01:04:28.632Z,56.90
2019-03-16T01:06:59.894Z,56.79
2019-03-16T01:09:30.805Z,57.10
2019-03-16T01:12:02.072Z,57.36
2019-03-16T01:14:32.926Z,57.41
2019-03-16T01:17:04.184Z,57.38
2019-03-16T01:19:35.416Z,57.46
2019-03-16T01:22:07.089Z,57.48
2019-03-16T01:24:37.929Z,57.49
2019-03-16T01:27:09.606Z,57.49
2019-03-16T01:29:40.525Z,57.70
2019-03-16T01:32:11.709Z,57.90
2019-03-16T01:34:44.330Z,57.92
2019-03-16T01:37:15.425Z,57.95
2019-03-16T01:39:46.872Z,58.11
2019-03-16T01:42:17.983Z,58.53
2019-03-16T01:44:49.119Z,58.43
2019-03-16T01:47:19.957Z,58.48
2019-03-16T01:49:50.981Z,58.89
2019-03-16T01:52:21.939Z,59.03
2019-03-16T01:54:53.187Z,59.16
2019-03-16T01:57:24.378Z,59.31
2019-03-16T01:59:55.553Z,59.54
2019-03-16T02:02:32.617Z,59.46
2019-03-16T02:05:07.636Z,59.59
2019-03-16T02:07:38.720Z,59.51
2019-03-16T02:10:09.922Z,59.59
2019-03-16T02:12:40.814Z,59.78
2019-03-16T02:15:11.843Z,59.72
2019-03-16T02:17:42.703Z,59.81
2019-03-16T02:20:13.936Z,59.87
2019-03-16T02:22:46.382Z,60.00
2019-03-16T02:25:17.339Z,60.01
2019-03-16T02:27:48.436Z,60.04
2019-03-16T02:30:19.444Z,60.15
2019-03-16T02:32:50.305Z,60.32
2019-03-16T02:35:21.402Z,60.49
2019-03-16T02:37:53.053Z,60.51
2019-03-16T02:40:26.067Z,60.56
2019-03-16T02:42:57.022Z,60.77
2019-03-16T02:45:28.174Z,60.87
2019-03-16T02:47:59.765Z,60.75
2019-03-16T02:50:31.013Z,60.81
2019-03-16T02:53:03.288Z,60.83
2019-03-16T02:55:34.237Z,60.86
2019-03-16T02:58:05.427Z,61.04
2019-03-16T03:00:37.018Z,60.79
2019-03-16T03:03:08.630Z,60.90
2019-03-16T03:05:39.642Z,60.76
2019-03-16T03:08:10.920Z,60.88
2019-03-16T03:10:41.748Z,60.53
2019-03-16T03:13:13.836Z,60.43
2019-03-16T03:15:45.056Z,60.32
2019-03-16T03:18:17.035Z,60.34
2019-03-16T03:20:47.869Z,60.38
2019-03-16T03:23:18.892Z,60.29
2019-03-16T03:25:50.321Z,60.29
2019-03-16T03:28:21.446Z,60.36
2019-03-16T03:30:52.696Z,60.29
2019-03-16T03:33:23.536Z,60.25
2019-03-16T03:35:54.440Z,60.37
2019-03-16T03:38:25.730Z,60.03
2019-03-16T03:41:01.227Z,59.97
2019-03-16T03:43:29.740Z,59.77
2019-03-16T03:46:01.012Z,59.65
2019-03-16T03:48:32.099Z,59.66
2019-03-16T03:51:03.438Z,59.51
2019-03-16T03:53:34.749Z,59.40
2019-03-16T03:56:05.669Z,58.99
2019-03-16T03:58:36.630Z,58.94
2019-03-16T04:01:07.602Z,58.51
2019-03-16T04:03:38.795Z,58.43
2019-03-16T04:06:09.966Z,58.20
2019-03-16T04:08:41.212Z,58.16
2019-03-16T04:11:12.077Z,58.08
2019-03-16T04:13:42.941Z,58.01
2019-03-16T04:16:13.845Z,57.47
2019-03-16T04:18:45.162Z,57.21
2019-03-16T04:21:16.117Z,57.32
2019-03-16T04:23:47.497Z,57.37
2019-03-16T04:26:19.176Z,57.01
2019-03-16T04:28:50.454Z,57.31
2019-03-16T04:31:21.291Z,57.33
2019-03-16T04:33:52.131Z,56.95
2019-03-16T04:36:23.239Z,56.70
2019-03-16T04:38:54.078Z,56.49
2019-03-16T04:41:25.075Z,56.90
2019-03-16T04:43:56.181Z,56.73
2019-03-16T04:46:27.033Z,56.70
2019-03-16T04:48:58.137Z,56.66
2019-03-16T04:51:29.474Z,56.25
2019-03-16T04:54:00.668Z,56.37
2019-03-16T04:56:31.717Z,56.35
2019-03-16T04:59:02.840Z,56.14
2019-03-16T05:01:33.783Z,56.29
2019-03-16T05:04:04.819Z,56.64
2019-03-16T05:06:35.699Z,56.33
2019-03-16T05:09:07.495Z,56.23
2019-03-16T05:11:38.825Z,56.29
2019-03-16T05:14:10.762Z,56.29
2019-03-16T05:16:42.699Z,56.45
2019-03-16T05:19:13.625Z,56.63
2019-03-16T05:21:44.523Z,56.81
2019-03-16T05:24:15.471Z,56.95
2019-03-16T05:26:46.523Z,57.21
2019-03-16T05:29:17.452Z,57.23
2019-03-16T05:31:50.682Z,57.61
2019-03-16T05:34:21.126Z,57.76
2019-03-16T05:36:52.050Z,58.25
2019-03-16T05:39:23.570Z,58.40
2019-03-16T05:41:55.181Z,58.20
2019-03-16T05:44:26.125Z,58.34
2019-03-16T05:46:58.026Z,58.45
2019-03-16T05:49:29.184Z,58.72
2019-03-16T05:52:00.040Z,58.78
2019-03-16T05:54:31.864Z,58.79
2019-03-16T05:57:02.806Z,58.84
2019-03-16T05:59:34.033Z,59.02
2019-03-16T06:02:05.050Z,59.09
2019-03-16T06:04:36.226Z,58.63
2019-03-16T06:07:07.377Z,59.27
2019-03-16T06:09:38.521Z,59.25
2019-03-16T06:12:09.451Z,59.11
2019-03-16T06:14:40.360Z,59.32
2019-03-16T06:17:12.149Z,59.45
2019-03-16T06:19:43.573Z,59.46
2019-03-16T06:22:14.538Z,59.45
2019-03-16T06:24:45.521Z,59.09
2019-03-16T06:27:16.709Z,59.39
2019-03-16T06:29:47.618Z,59.77
2019-03-16T06:32:18.631Z,59.84
2019-03-16T06:34:49.528Z,59.73
2019-03-16T06:37:20.610Z,59.97
2019-03-16T06:39:51.535Z,59.80
2019-03-16T06:42:22.474Z,59.89
2019-03-16T06:44:53.306Z,59.59
2019-03-16T06:47:24.260Z,59.64
2019-03-16T06:49:55.186Z,59.38
2019-03-16T06:52:26.555Z,59.34
2019-03-16T06:54:57.560Z,59.36
2019-03-16T06:57:28.441Z,59.16
2019-03-16T06:59:59.960Z,58.98
2019-03-16T07:02:31.253Z,59.28
2019-03-16T07:05:04.376Z,59.07
2019-03-16T07:07:36.387Z,58.68
2019-03-16T07:10:08.386Z,58.37
2019-03-16T07:12:39.365Z,57.88
2019-03-16T07:15:10.352Z,57.60
2019-03-16T07:17:41.571Z,57.60
2019-03-16T07:20:13.648Z,56.99
2019-03-16T07:22:44.714Z,56.74
2019-03-16T07:25:16.022Z,57.06
2019-03-16T07:27:46.973Z,57.83
2019-03-16T07:30:18.803Z,58.44
2019-03-16T07:32:49.767Z,58.90
2019-03-16T07:35:20.982Z,59.47
2019-03-16T07:37:51.843Z,59.65
2019-03-16T07:40:22.764Z,60.15
2019-03-16T07:42:53.627Z,60.54
2019-03-16T07:45:24.535Z,60.69
2019-03-16T07:47:55.479Z,61.78
2019-03-16T07:53:02.995Z,62.57
2019-03-16T07:55:35.157Z,63.27
2019-03-16T07:58:07.501Z,64.05
2019-03-16T08:00:38.441Z,64.05
2019-03-16T08:03:09.412Z,64.97
2019-03-16T08:05:40.367Z,65.57
2019-03-16T08:08:11.343Z,66.33
2019-03-16T08:10:42.500Z,66.69
2019-03-16T08:13:14.417Z,67.14
2019-03-16T08:15:45.926Z,67.41
2019-03-16T08:18:16.872Z,68.42
2019-03-16T08:20:47.837Z,68.42
2019-03-16T08:23:18.743Z,67.95
2019-03-16T08:25:50.893Z,68.33
2019-03-16T08:28:21.806Z,68.49
2019-03-16T08:30:52.642Z,68.87
2019-03-16T08:33:23.838Z,68.91
2019-03-16T08:35:55.075Z,69.21
2019-03-16T08:38:25.945Z,69.26
2019-03-16T08:40:56.816Z,69.28
2019-03-16T08:43:27.695Z,69.05
2019-03-16T08:45:58.522Z,68.78
2019-03-16T08:48:29.429Z,69.66
2019-03-16T08:51:00.266Z,69.57
2019-03-16T08:53:31.126Z,70.12
2019-03-16T08:56:02.049Z,69.97
2019-03-16T08:58:34.779Z,70.00
2019-03-16T09:01:05.609Z,70.84
2019-03-16T09:03:43.522Z,71.01
2019-03-16T09:06:09.181Z,70.83
2019-03-16T09:08:40.043Z,70.78
2019-03-16T09:11:10.898Z,71.28
2019-03-16T09:13:41.946Z,71.46
2019-03-16T09:16:12.971Z,71.17
2019-03-16T09:18:44.057Z,71.20
2019-03-16T09:21:15.466Z,71.32
2019-03-16T09:23:46.468Z,71.38
2019-03-16T09:26:18.011Z,71.57
2019-03-16T09:28:59.635Z,71.48
2019-03-16T09:31:21.786Z,71.32
2019-03-16T09:33:52.926Z,71.64
2019-03-16T09:36:23.767Z,71.62
2019-03-16T09:38:54.628Z,71.12
2019-03-16T09:41:25.527Z,71.35
2019-03-16T09:43:56.640Z,71.19
2019-03-16T09:46:27.525Z,70.74
2019-03-16T09:48:58.658Z,71.11
2019-03-16T09:51:29.488Z,71.24
2019-03-16T09:54:00.425Z,71.54
2019-03-16T09:56:32.021Z,70.79
2019-03-16T09:59:02.866Z,71.16
2019-03-16T10:01:35.071Z,71.17
2019-03-16T10:04:05.916Z,71.36
2019-03-16T10:06:37.089Z,72.03
2019-03-16T10:09:09.107Z,71.91
2019-03-16T10:11:39.957Z,71.73
2019-03-16T10:14:10.780Z,71.52
2019-03-16T10:16:41.712Z,71.03
2019-03-16T10:19:14.051Z,71.13
2019-03-16T10:21:45.216Z,71.29
2019-03-16T10:24:16.048Z,71.29
2019-03-16T10:26:47.154Z,71.68
2019-03-16T10:29:18.411Z,71.73
2019-03-16T10:31:49.298Z,71.43
2019-03-16T10:34:20.152Z,71.12
2019-03-16T10:36:53.378Z,70.79
2019-03-16T10:39:24.489Z,70.53
2019-03-16T10:41:55.691Z,69.92
2019-03-16T10:44:26.519Z,69.51
2019-03-16T10:46:57.395Z,69.31
2019-03-16T10:49:28.715Z,69.04
2019-03-16T10:52:00.011Z,69.74
2019-03-16T10:54:31.099Z,69.68
2019-03-16T10:57:04.275Z,70.06
2019-03-16T10:59:37.300Z,69.81
2019-03-16T11:02:08.600Z,69.92
2019-03-16T11:04:39.417Z,70.06
2019-03-16T11:07:10.246Z,70.86
2019-03-16T11:09:41.572Z,71.12
2019-03-16T11:12:12.396Z,71.12
2019-03-16T11:14:43.382Z,71.37
2019-03-16T11:17:14.428Z,71.60
2019-03-16T11:19:46.003Z,72.04
2019-03-16T11:22:16.847Z,72.12
2019-03-16T11:24:48.267Z,72.87
2019-03-16T11:27:19.605Z,73.57
2019-03-16T11:29:50.713Z,73.85
2019-03-16T11:32:21.912Z,73.99
2019-03-16T11:34:52.759Z,73.99
2019-03-16T11:37:24.767Z,74.30
2019-03-16T11:39:55.948Z,74.39
2019-03-16T11:42:26.781Z,74.13
2019-03-16T11:44:57.721Z,74.32
2019-03-16T11:47:31.344Z,74.83
2019-03-16T11:50:04.258Z,74.84
2019-03-16T11:52:37.912Z,74.80
2019-03-16T11:55:09.205Z,74.83
2019-03-16T11:57:40.276Z,75.03
2019-03-16T12:00:11.289Z,75.11
2019-03-16T12:02:42.445Z,75.31
2019-03-16T12:05:13.507Z,75.42
2019-03-16T12:07:44.784Z,75.50
2019-03-16T12:10:16.420Z,75.48
2019-03-16T12:12:50.423Z,75.45
2019-03-16T12:15:21.379Z,75.59
2019-03-16T12:17:52.445Z,75.53
2019-03-16T12:20:23.416Z,75.67
2019-03-16T12:22:54.285Z,75.70
2019-03-16T12:25:25.271Z,76.04
2019-03-16T12:27:56.132Z,76.08
2019-03-16T12:30:27.124Z,75.97
2019-03-16T12:32:57.967Z,75.89
2019-03-16T12:35:28.917Z,75.79
2019-03-16T12:38:01.977Z,75.92
2019-03-16T12:40:36.301Z,75.86
2019-03-16T12:43:07.283Z,75.81
2019-03-16T12:45:38.147Z,75.93
2019-03-16T12:48:09.388Z,76.12
2019-03-16T12:50:41.657Z,75.94
2019-03-16T12:53:13.176Z,75.97
2019-03-16T12:55:44.332Z,75.93
2019-03-16T12:58:15.317Z,75.96
2019-03-16T13:00:46.358Z,75.80
2019-03-16T13:03:17.298Z,75.82
2019-03-16T13:05:48.173Z,75.88
2019-03-16T13:08:19.902Z,75.95
2019-03-16T13:10:50.759Z,76.03
2019-03-16T13:13:21.827Z,76.08
2019-03-16T13:15:52.875Z,76.03
2019-03-16T13:18:23.794Z,75.91
2019-03-16T13:21:01.222Z,75.95
2019-03-16T13:23:39.535Z,76.12
2019-03-16T13:26:14.115Z,76.37
2019-03-16T13:28:44.966Z,76.52
2019-03-16T13:31:15.936Z,76.57
2019-03-16T13:33:47.809Z,76.51
2019-03-16T13:36:18.668Z,76.55
2019-03-16T13:38:49.979Z,76.53
2019-03-16T13:41:21.348Z,76.63
2019-03-16T13:43:52.391Z,76.68
2019-03-16T13:46:23.513Z,76.71
2019-03-16T13:48:54.726Z,76.62
2019-03-16T13:51:25.541Z,76.21
2019-03-16T13:53:56.655Z,75.74
2019-03-16T13:56:27.597Z,75.37
2019-03-16T13:58:58.791Z,74.84
2019-03-16T14:01:29.673Z,74.39
2019-03-16T14:04:03.056Z,74.12
2019-03-16T14:06:33.470Z,73.33
2019-03-16T14:09:06.628Z,73.33
2019-03-16T14:11:41.135Z,73.21
2019-03-16T14:14:11.622Z,72.99
2019-03-16T14:16:42.510Z,72.46
2019-03-16T14:19:13.397Z,72.31
2019-03-16T14:21:44.440Z,71.88
2019-03-16T14:24:15.802Z,71.63
2019-03-16T14:26:46.977Z,71.69
2019-03-16T14:29:18.124Z,71.73
2019-03-16T14:31:51.265Z,71.69
2019-03-16T14:34:22.137Z,71.54
2019-03-16T14:36:53.113Z,70.90
2019-03-16T14:39:23.995Z,70.72
2019-03-16T14:41:55.232Z,70.59
2019-03-16T14:44:26.737Z,70.29
2019-03-16T14:46:57.596Z,69.99
2019-03-16T14:49:28.521Z,68.78
2019-03-16T14:51:59.643Z,68.78
2019-03-16T14:54:30.557Z,68.90
2019-03-16T14:57:02.076Z,68.32
2019-03-16T14:59:34.300Z,68.30
2019-03-16T15:02:05.228Z,68.14
2019-03-16T15:04:36.309Z,67.82
2019-03-16T15:07:07.165Z,67.59
2019-03-16T15:09:38.015Z,67.23
2019-03-16T15:12:08.923Z,66.77
2019-03-16T15:14:39.939Z,66.74
2019-03-16T15:17:10.920Z,66.32
2019-03-16T15:19:42.079Z,66.40
2019-03-16T15:22:13.429Z,66.17
2019-03-16T15:24:44.278Z,65.89
2019-03-16T15:27:16.062Z,66.21
2019-03-16T15:29:47.381Z,66.31
2019-03-16T15:32:18.450Z,65.17
2019-03-16T15:34:49.375Z,64.91
2019-03-16T15:37:20.913Z,64.91
2019-03-16T15:39:52.346Z,65.56
2019-03-16T15:42:23.305Z,64.67
2019-03-16T15:44:54.255Z,64.67
2019-03-16T15:47:25.228Z,64.72
2019-03-16T15:49:58.495Z,64.60
2019-03-16T15:52:29.110Z,64.95
2019-03-16T15:55:00.469Z,64.75
2019-03-16T15:57:31.717Z,64.25
2019-03-16T16:00:02.539Z,63.70
2019-03-16T16:02:34.901Z,63.55
2019-03-16T16:05:06.179Z,63.94
2019-03-16T16:07:37.086Z,63.79
2019-03-16T16:10:09.306Z,63.63
2019-03-16T16:12:40.433Z,63.64
2019-03-16T16:15:11.540Z,63.16
2019-03-16T16:17:42.448Z,63.04
2019-03-16T16:20:13.457Z,63.36
2019-03-16T16:22:44.364Z,63.19
2019-03-16T16:25:15.572Z,63.40
2019-03-16T16:27:46.418Z,63.54
2019-03-16T16:30:17.357Z,63.86
2019-03-16T16:32:48.249Z,63.70
2019-03-16T16:35:21.031Z,62.70
2019-03-16T16:37:51.933Z,62.22
2019-03-16T16:40:23.270Z,62.43
2019-03-16T16:42:54.597Z,62.32
2019-03-16T16:45:25.500Z,62.14
2019-03-16T16:47:56.589Z,62.15
2019-03-16T16:50:27.478Z,63.00
2019-03-16T16:52:58.689Z,62.90
2019-03-16T16:55:29.635Z,63.09
2019-03-16T16:58:00.465Z,63.20
2019-03-16T17:00:31.796Z,63.23
2019-03-16T17:03:02.977Z,63.08
2019-03-16T17:05:36.761Z,62.61
2019-03-16T17:08:07.605Z,62.15
2019-03-16T17:10:38.885Z,62.19
2019-03-16T17:13:09.817Z,62.31
2019-03-16T17:15:40.938Z,61.70
2019-03-16T17:18:12.221Z,61.70
2019-03-16T17:20:43.130Z,61.04
2019-03-16T17:23:14.022Z,61.18
2019-03-16T17:25:45.102Z,61.59
2019-03-16T17:28:16.325Z,61.68
2019-03-16T17:30:47.170Z,61.84
2019-03-16T17:33:18.118Z,62.28
2019-03-16T17:35:49.278Z,62.62
2019-03-16T17:38:20.167Z,62.36
2019-03-16T17:40:51.104Z,62.85
2019-03-16T17:43:22.024Z,62.40
2019-03-16T17:45:53.021Z,62.27
2019-03-16T17:48:24.650Z,62.35
2019-03-16T17:50:55.795Z,62.72
2019-03-16T17:53:26.667Z,62.75
2019-03-16T17:55:57.835Z,62.84
2019-03-16T17:58:29.006Z,63.04
2019-03-16T18:00:59.863Z,63.25
2019-03-16T18:03:30.819Z,63.01
2019-03-16T18:06:04.794Z,62.55
2019-03-16T18:08:36.068Z,62.32
2019-03-16T18:11:07.365Z,62.45
2019-03-16T18:13:38.235Z,62.73
2019-03-16T18:16:09.092Z,61.45
2019-03-16T18:18:39.932Z,61.30
2019-03-16T18:21:10.837Z,60.96
2019-03-16T18:23:41.686Z,60.68
2019-03-16T18:26:12.654Z,60.32
2019-03-16T18:28:43.764Z,60.18
2019-03-16T18:31:14.811Z,59.20
2019-03-16T18:33:45.708Z,58.97
2019-03-16T18:36:16.856Z,58.62
2019-03-16T18:38:47.785Z,58.14
2019-03-16T18:41:18.760Z,58.11
2019-03-16T18:43:49.833Z,57.64
2019-03-16T18:46:21.307Z,56.88
2019-03-16T18:48:52.252Z,56.50
2019-03-16T18:51:23.139Z,56.70
2019-03-16T18:53:53.980Z,56.70
2019-03-16T18:56:25.526Z,56.54
2019-03-16T18:58:56.416Z,56.12
2019-03-16T19:01:27.502Z,56.52
2019-03-16T19:03:58.424Z,55.68
2019-03-16T19:06:30.367Z,55.53
2019-03-16T19:09:02.758Z,55.68
2019-03-16T19:11:37.451Z,55.21
2019-03-16T19:14:08.354Z,55.20
2019-03-16T19:16:39.486Z,55.09
2019-03-16T19:19:10.375Z,55.11
2019-03-16T19:21:41.463Z,55.07
2019-03-16T19:24:12.377Z,55.04
2019-03-16T19:26:43.452Z,55.38
2019-03-16T19:29:16.817Z,55.29
2019-03-16T19:31:48.005Z,55.29
2019-03-16T19:34:19.394Z,55.30
2019-03-16T19:36:50.804Z,55.09
2019-03-16T19:39:24.999Z,55.18
2019-03-16T19:41:55.619Z,55.21
2019-03-16T19:44:26.568Z,55.46
2019-03-16T19:46:57.573Z,55.69
2019-03-16T19:49:28.450Z,55.80
2019-03-16T19:51:59.687Z,55.70
2019-03-16T19:54:30.700Z,55.49
2019-03-16T19:57:15.425Z,55.66
2019-03-16T19:59:38.716Z,55.50
2019-03-16T20:02:09.820Z,55.22
2019-03-16T20:04:40.859Z,55.50
2019-03-16T20:07:19.189Z,55.56
2019-03-16T20:09:44.938Z,55.81
2019-03-16T20:12:16.512Z,56.09
2019-03-16T20:14:47.517Z,55.79
2019-03-16T20:17:18.976Z,55.45
2019-03-16T20:19:49.920Z,55.47
2019-03-16T20:22:21.081Z,55.68
2019-03-16T20:24:52.345Z,55.47
2019-03-16T20:27:23.372Z,55.41
2019-03-16T20:29:55.670Z,55.32
2019-03-16T20:32:27.565Z,55.47
2019-03-16T20:34:58.750Z,55.72
2019-03-16T20:37:29.964Z,55.39
2019-03-16T20:40:01.064Z,55.07
2019-03-16T20:42:31.967Z,54.82
2019-03-16T20:45:05.696Z,55.08
2019-03-16T20:47:36.617Z,54.53
2019-03-16T20:50:09.495Z,55.04
2019-03-16T20:52:40.592Z,54.76
2019-03-16T20:55:11.514Z,54.96
2019-03-16T20:57:42.387Z,55.12
2019-03-16T21:00:13.341Z,55.44
2019-03-16T21:02:44.399Z,54.91
2019-03-16T21:05:15.352Z,54.67
2019-03-16T21:07:46.374Z,54.86
2019-03-16T21:10:17.478Z,54.88
2019-03-16T21:12:48.565Z,55.06
2019-03-16T21:15:22.557Z,54.93
2019-03-16T21:17:55.793Z,54.91
2019-03-16T21:20:26.537Z,54.81
2019-03-16T21:22:57.516Z,54.25
2019-03-16T21:25:28.435Z,54.36
2019-03-16T21:28:00.991Z,54.56
2019-03-16T21:30:33.843Z,54.33
2019-03-16T21:33:04.681Z,54.65
2019-03-16T21:35:35.611Z,54.65
2019-03-16T21:38:06.591Z,54.77
2019-03-16T21:40:38.704Z,54.65
2019-03-16T21:43:09.689Z,54.58
2019-03-16T21:45:40.575Z,54.99
2019-03-16T21:48:11.647Z,55.04
2019-03-16T21:50:42.583Z,54.70
2019-03-16T21:53:13.495Z,54.78
2019-03-16T21:55:44.560Z,54.73
2019-03-16T21:58:15.577Z,54.91
2019-03-16T22:00:46.563Z,54.85
2019-03-16T22:03:17.449Z,55.04
2019-03-16T22:05:48.343Z,54.92
2019-03-16T22:08:20.147Z,54.92
2019-03-16T22:10:51.320Z,54.92
2019-03-16T22:13:22.444Z,55.01
2019-03-16T22:15:53.414Z,54.88
2019-03-16T22:18:24.767Z,54.49
2019-03-16T22:20:55.601Z,54.41
2019-03-16T22:23:26.454Z,54.84
2019-03-16T22:25:59.736Z,54.99
2019-03-16T22:28:30.585Z,54.99
2019-03-16T22:31:03.824Z,55.26
2019-03-16T22:33:35.030Z,55.43
2019-03-16T22:36:05.884Z,55.78
2019-03-16T22:38:36.784Z,55.95
2019-03-16T22:41:07.936Z,56.05
2019-03-16T22:43:38.735Z,56.30
2019-03-16T22:46:10.239Z,56.30
2019-03-16T22:48:41.394Z,56.59
2019-03-16T22:51:12.800Z,56.31
2019-03-16T22:53:43.640Z,56.62
2019-03-16T22:56:14.553Z,56.60
2019-03-16T22:58:45.491Z,56.60
2019-03-16T23:01:16.660Z,56.96
2019-03-16T23:03:47.910Z,56.68
2019-03-16T23:06:18.805Z,56.79
2019-03-16T23:08:51.176Z,56.95
2019-03-16T23:11:22.005Z,57.17
2019-03-16T23:13:52.931Z,57.21
2019-03-16T23:16:24.062Z,57.23
2019-03-16T23:18:54.956Z,57.22
2019-03-16T23:21:26.382Z,57.75
2019-03-16T23:23:57.501Z,57.75
2019-03-16T23:26:38.031Z,57.50
2019-03-16T23:29:01.556Z,57.66
2019-03-16T23:31:32.425Z,57.52
2019-03-16T23:34:18.336Z,57.32
2019-03-16T23:36:38.557Z,57.24
2019-03-16T23:39:09.510Z,57.36
2019-03-16T23:41:40.339Z,57.05
2019-03-16T23:44:11.654Z,56.85
2019-03-16T23:46:42.578Z,56.82
2019-03-16T23:49:14.852Z,56.74
2019-03-16T23:51:45.998Z,56.96
2019-03-16T23:54:16.876Z,56.53
2019-03-16T23:56:47.835Z,56.39
2019-03-16T23:59:18.740Z,56.55
